Logandale, NV

4:41 AM PST on December 29, 2014 (GMT -0800)
KNVOVERT2 | Change Station
CLOSE
Current Station
Personal Weather Station
Location: Overton, NV
Elevation: 1308 ft
Nearby Weather Stations
Active Advisory: Winter Storm Watch

Elev 1308 ft 36.57 °N, 114.46 °W | Updated 1 minute ago

Clear
Clear
18.7 °F
Feels Like 19 °F
N
2.1
Wind Variable Wind from SSW
Gusts 2.1 mph

Today
High -- | Low -- °F
--% Chance of Precip.
Yesterday
High -- | Low -- °F
Precip. -- in
6:49 AM 4:30 PM
First Quarter, 58% visible
Pressure 30.15 in
Visibility 10.0 miles
Clouds Clear
Windchill 19 °F
Dew Point 15 °F
Humidity 85%
Rainfall 0.00 in
Snow Depth Not available.
UV 0 out of 12
Pollen .90 out of 12
Air Quality Not available.
Flu Activity Not available.
METAR KLSV 291158Z AUTO 31002KT 10SM CLR M04/M11 A3012 RMK AO2 SLP209 T10421113 10020 21042 50004 $

More Conditions Fewer Conditions

Pressure 30.15 in
Visibility 10.0 miles
Clouds Clear
Windchill 19 °F
Dew Point 15 °F
Humidity 85%
Rainfall 0.00 in
Snow Depth Not available.
UV 0 out of 12
Pollen .90 out of 12
Air Quality Not available.
Flu Activity Not available.
METAR KLSV 291158Z AUTO 31002KT 10SM CLR M04/M11 A3012 RMK AO2 SLP209 T10421113 10020 21042 50004 $

More Conditions Fewer Conditions

10-Day Weather Forecast

Almanac

Astronomy

Dec. 29, 2014 Rise Set
Actual Time
Civil Twilight
Nautical Twilight
Astronomical Twilight
Moon
Length of Visible Light
Length of Day
Tomorrow will be .
, % of the Moon is Illuminated

Today's Extremes

State Highs State Lows

Community

WunderPhotos

Upload Photos

1,781,574 photos uploaded!

WunderBlogs® & News

Nearby

Air Quality

  Air Quality AQ Index Pollutant
Not available.

Snow Depth

Station Depth Elevation

Earthquake Activity

City Distance Mag. Time & Date
Minimum magnitude displayed is 2.5.

Coastal Water Temperatures

Place Temperature

Nearby Weather Stations